createdAt,value
2023-05-13T00:16:06.559Z,951
2023-05-13T00:36:06.614Z,950
2023-05-13T00:56:06.655Z,951
2023-05-13T01:16:06.785Z,950
2023-05-13T02:16:06.920Z,952
2023-05-13T02:36:06.916Z,954
2023-05-13T02:56:06.979Z,950
2023-05-13T03:16:07.056Z,948
2023-05-13T03:56:07.129Z,946
2023-05-13T05:56:07.468Z,942
2023-05-13T06:16:07.609Z,944
2023-05-13T07:16:07.657Z,942
2023-05-13T07:36:07.745Z,948
2023-05-13T07:56:14.726Z,953
2023-05-13T08:16:07.853Z,956
2023-05-13T08:36:07.838Z,950
2023-05-13T10:16:15.050Z,949
2023-05-13T11:16:15.227Z,947
2023-05-13T12:16:15.322Z,947
2023-05-13T13:56:08.666Z,934
2023-05-13T14:16:15.604Z,942
2023-05-13T14:36:08.601Z,939
2023-05-13T14:56:08.670Z,944
2023-05-13T15:16:08.687Z,929
2023-05-13T15:56:08.781Z,932
2023-05-13T16:16:08.855Z,939
2023-05-13T16:56:08.895Z,955
2023-05-13T17:16:08.976Z,951
2023-05-13T17:36:15.985Z,963
2023-05-13T17:56:09.073Z,987
2023-05-13T18:16:09.149Z,982
2023-05-13T18:36:10.184Z,977
2023-05-13T18:56:16.206Z,968
2023-05-13T19:16:16.314Z,959
2023-05-13T19:36:09.297Z,952
2023-05-13T19:56:09.322Z,947
2023-05-13T20:16:09.407Z,943
2023-05-13T20:36:09.444Z,935
2023-05-13T20:56:09.508Z,934
2023-05-13T21:16:09.627Z,931
2023-05-13T21:36:09.570Z,933
2023-05-13T21:56:09.632Z,935
2023-05-13T22:16:09.788Z,931
2023-05-13T22:36:09.721Z,933
2023-05-13T22:56:09.764Z,931
2023-05-13T23:16:09.959Z,930
2023-05-13T23:36:09.873Z,931
2023-05-13T23:56:09.967Z,927
